PHTGV EHTE-EHTE

Flight info

Callsign PHTGV
Flight time N/A
Altitude 2500
Route DCT
Aircraft C172/L-DGV/S

Departure

Time 2026-04-22 09:07
Airport Teuge Airport (EHTE)

Arrival

Time N/A
Airport Teuge Airport (EHTE)
Time Latitude Longitude Altitude Speed Heading
2026-04-22 09:03 52.24145 6.04719 19 ft 0 kts 265°
2026-04-22 09:04 52.24158 6.04678 19 ft 8 kts 349°
2026-04-22 09:04 52.24171 6.04610 19 ft 10 kts 263°
2026-04-22 09:05 52.24165 6.04466 19 ft 13 kts 264°
2026-04-22 09:05 52.24157 6.04324 19 ft 12 kts 265°
2026-04-22 09:05 52.24182 6.04235 19 ft 8 kts 326°
2026-04-22 09:05 52.24226 6.04183 19 ft 7 kts 329°
2026-04-22 09:06 52.24247 6.04201 20 ft 0 kts 86°
2026-04-22 09:06 52.24252 6.04329 19 ft 36 kts 86°
2026-04-22 09:07 52.24281 6.05000 66 ft 73 kts 88°
2026-04-22 09:07 52.24283 6.05866 297 ft 79 kts 90°
2026-04-22 09:07 52.24266 6.06739 635 ft 72 kts 85°
2026-04-22 09:07 52.24370 6.07240 837 ft 71 kts 61°
2026-04-22 09:08 52.24710 6.07905 1001 ft 77 kts 45°
2026-04-22 09:08 52.25134 6.08410 1212 ft 79 kts 38°
2026-04-22 09:08 52.25436 6.09098 1451 ft 79 kts 87°
2026-04-22 09:08 52.25317 6.09996 1695 ft 86 kts 107°
2026-04-22 09:09 52.25124 6.10957 1877 ft 93 kts 106°
2026-04-22 09:09 52.24814 6.11932 2053 ft 105 kts 135°
2026-04-22 09:09 52.24133 6.12397 2256 ft 109 kts 165°
2026-04-22 09:09 52.23331 6.12475 2410 ft 115 kts 175°
2026-04-22 09:10 52.22556 6.12337 2528 ft 110 kts 184°
2026-04-22 09:10 52.21815 6.11993 2555 ft 107 kts 193°
2026-04-22 09:10 52.21120 6.11647 2647 ft 104 kts 190°
2026-04-22 09:10 52.20404 6.11346 2678 ft 110 kts 189°
2026-04-22 09:11 52.19654 6.10964 2594 ft 113 kts 192°
2026-04-22 09:11 52.18938 6.10513 2404 ft 122 kts 202°
2026-04-22 09:11 52.18161 6.10027 2376 ft 115 kts 191°
2026-04-22 09:11 52.17423 6.09664 2362 ft 109 kts 192°
2026-04-22 09:12 52.16746 6.09180 2364 ft 109 kts 217°
2026-04-22 09:12 52.16148 6.08391 2379 ft 111 kts 215°
2026-04-22 09:12 52.15532 6.07605 2353 ft 113 kts 215°
2026-04-22 09:12 52.14931 6.06822 2353 ft 109 kts 216°
2026-04-22 09:13 52.14335 6.06063 2353 ft 107 kts 216°
2026-04-22 09:13 52.13709 6.05458 2358 ft 104 kts 202°
2026-04-22 09:13 52.13078 6.04892 2356 ft 103 kts 209°
2026-04-22 09:13 52.12479 6.04255 2364 ft 106 kts 207°
2026-04-22 09:14 52.11852 6.03574 2374 ft 107 kts 210°
2026-04-22 09:14 52.11206 6.02895 2362 ft 114 kts 209°
2026-04-22 09:14 52.10541 6.02168 2363 ft 119 kts 207°
2026-04-22 09:14 52.09852 6.01448 2354 ft 117 kts 213°
2026-04-22 09:15 52.09199 6.00708 2352 ft 112 kts 209°
2026-04-22 09:15 52.08566 6.00008 2351 ft 109 kts 210°
2026-04-22 09:15 52.07936 5.99312 2350 ft 109 kts 210°
2026-04-22 09:15 52.07315 5.98623 2350 ft 108 kts 210°
2026-04-22 09:16 52.06700 5.97954 2352 ft 105 kts 210°
2026-04-22 09:16 52.06098 5.97298 2349 ft 103 kts 209°
2026-04-22 09:16 52.05507 5.96645 2359 ft 104 kts 210°
2026-04-22 09:16 52.04908 5.95982 2352 ft 103 kts 210°
2026-04-22 09:17 52.04315 5.95327 2356 ft 103 kts 210°
2026-04-22 09:17 52.03718 5.94677 2369 ft 105 kts 210°
2026-04-22 09:17 52.03062 5.93994 2378 ft 119 kts 213°
2026-04-22 09:17 52.02400 5.93235 2339 ft 113 kts 209°
2026-04-22 09:18 52.01753 5.92531 2360 ft 113 kts 210°
2026-04-22 09:18 52.01104 5.91807 2343 ft 113 kts 208°
2026-04-22 09:18 52.00464 5.91100 2337 ft 110 kts 210°
2026-04-22 09:18 51.99826 5.90372 2335 ft 115 kts 223°
2026-04-22 09:19 51.99447 5.89240 2355 ft 115 kts 250°
2026-04-22 09:19 51.99351 5.87958 2342 ft 116 kts 284°
2026-04-22 09:19 51.99497 5.86702 2363 ft 114 kts 281°
2026-04-22 09:19 51.99650 5.85435 2350 ft 114 kts 286°
2026-04-22 09:20 51.99793 5.84139 2338 ft 113 kts 286°
2026-04-22 09:20 51.99937 5.82881 2329 ft 113 kts 284°
2026-04-22 09:20 52.00075 5.81634 2330 ft 112 kts 283°
2026-04-22 09:20 52.00225 5.80394 2330 ft 112 kts 285°
2026-04-22 09:21 52.00361 5.79172 2341 ft 110 kts 284°
2026-04-22 09:21 52.00498 5.77949 2337 ft 110 kts 285°
2026-04-22 09:21 52.00647 5.76703 2360 ft 115 kts 285°
2026-04-22 09:21 52.00780 5.75409 2340 ft 115 kts 285°
2026-04-22 09:22 52.00942 5.74133 2330 ft 115 kts 285°
2026-04-22 09:22 52.01098 5.72838 2236 ft 117 kts 284°
2026-04-22 09:22 52.01252 5.71583 2071 ft 111 kts 284°
2026-04-22 09:22 52.01379 5.70311 1804 ft 111 kts 282°
2026-04-22 09:23 52.01518 5.69093 1590 ft 106 kts 289°
2026-04-22 09:23 52.01723 5.67966 1406 ft 100 kts 297°
2026-04-22 09:23 52.01916 5.66936 1346 ft 96 kts 286°
2026-04-22 09:23 52.02071 5.65845 1249 ft 100 kts 306°
2026-04-22 09:24 52.02601 5.65490 1148 ft 80 kts 32°
2026-04-22 09:24 52.03000 5.66048 1113 ft 75 kts 54°
2026-04-22 09:24 52.03395 5.66581 1065 ft 78 kts 20°
2026-04-22 09:24 52.03925 5.66759 1023 ft 77 kts 22°
2026-04-22 09:25 52.04447 5.66968 955 ft 83 kts 344°
2026-04-22 09:25 52.04830 5.66251 979 ft 89 kts 293°
2026-04-22 09:25 52.04783 5.65227 936 ft 91 kts 266°
2026-04-22 09:25 52.04715 5.64206 905 ft 91 kts 261°
2026-04-22 09:26 52.04610 5.63246 919 ft 85 kts 266°
2026-04-22 09:26 52.04512 5.62305 916 ft 91 kts 265°
2026-04-22 09:26 52.04468 5.61262 952 ft 95 kts 266°
2026-04-22 09:26 52.04292 5.60209 989 ft 100 kts 250°
2026-04-22 09:27 52.04109 5.59113 1014 ft 100 kts 257°
2026-04-22 09:27 52.04011 5.57985 992 ft 101 kts 266°
2026-04-22 09:27 52.03943 5.56826 945 ft 105 kts 268°
2026-04-22 09:27 52.03832 5.55650 989 ft 106 kts 264°
2026-04-22 09:28 52.03791 5.54461 1012 ft 105 kts 263°
2026-04-22 09:28 52.03708 5.53285 1043 ft 106 kts 271°
2026-04-22 09:28 52.03672 5.52097 1080 ft 105 kts 271°
2026-04-22 09:28 52.03575 5.50912 1094 ft 108 kts 264°
2026-04-22 09:29 52.03478 5.49695 1086 ft 110 kts 265°
2026-04-22 09:29 52.03409 5.48464 1102 ft 109 kts 263°
2026-04-22 09:29 52.03329 5.47225 1088 ft 112 kts 272°
2026-04-22 09:29 52.03280 5.45950 1066 ft 114 kts 264°
2026-04-22 09:30 52.03215 5.44683 1034 ft 111 kts 271°
2026-04-22 09:30 52.03237 5.43437 1034 ft 109 kts 278°
2026-04-22 09:30 52.03206 5.42171 1028 ft 112 kts 266°
2026-04-22 09:30 52.03146 5.40922 1030 ft 112 kts 274°
2026-04-22 09:31 52.03121 5.39670 973 ft 112 kts 256°
2026-04-22 09:31 52.03001 5.38428 965 ft 113 kts 268°
2026-04-22 09:31 52.03038 5.37176 956 ft 111 kts 287°
2026-04-22 09:31 52.03086 5.35943 970 ft 108 kts 262°
2026-04-22 09:32 52.03001 5.34718 958 ft 109 kts 268°
2026-04-22 09:32 52.02949 5.33513 989 ft 106 kts 269°
2026-04-22 09:32 52.02853 5.32347 1090 ft 99 kts 263°
2026-04-22 09:32 52.02784 5.31109 1007 ft 109 kts 269°
2026-04-22 09:33 52.02739 5.29900 1046 ft 107 kts 269°
2026-04-22 09:33 52.02687 5.28710 1066 ft 108 kts 268°
2026-04-22 09:33 52.02630 5.27489 1080 ft 108 kts 268°
2026-04-22 09:33 52.02596 5.26239 1068 ft 112 kts 272°
2026-04-22 09:34 52.02590 5.24977 1116 ft 109 kts 277°
2026-04-22 09:34 52.02652 5.23743 1155 ft 113 kts 279°
2026-04-22 09:34 52.02674 5.22422 1064 ft 119 kts 265°
2026-04-22 09:35 52.02432 5.19761 1106 ft 115 kts 263°
2026-04-22 09:35 52.02295 5.18466 1109 ft 115 kts 263°
2026-04-22 09:35 52.02222 5.17146 1114 ft 116 kts 287°
2026-04-22 09:35 52.02518 5.15968 1207 ft 108 kts 312°
2026-04-22 09:36 52.03017 5.15092 1263 ft 106 kts 325°
2026-04-22 09:36 52.03599 5.14340 1246 ft 108 kts 334°
2026-04-22 09:36 52.04270 5.13820 1286 ft 108 kts 346°
2026-04-22 09:36 52.04969 5.13377 1245 ft 109 kts 347°
2026-04-22 09:37 52.05693 5.12896 1193 ft 110 kts 346°
2026-04-22 09:37 52.06411 5.12515 1132 ft 111 kts 349°
2026-04-22 09:37 52.07108 5.11916 1109 ft 116 kts 332°
2026-04-22 09:37 52.07717 5.11089 1180 ft 113 kts 319°
2026-04-22 09:38 52.08293 5.10143 1055 ft 122 kts 325°
2026-04-22 09:38 52.09038 5.09713 996 ft 107 kts 17°
2026-04-22 09:38 52.09445 5.10503 947 ft 100 kts 79°
2026-04-22 09:38 52.09238 5.11555 858 ft 105 kts 130°
2026-04-22 09:39 52.08823 5.12437 900 ft 83 kts 96°
2026-04-22 09:39 52.08753 5.13436 761 ft 103 kts 117°
2026-04-22 09:39 52.08374 5.14476 641 ft 112 kts 120°
2026-04-22 09:39 52.07922 5.15440 742 ft 99 kts 121°
2026-04-22 09:40 52.07924 5.16460 890 ft 99 kts 57°
2026-04-22 09:40 52.08235 5.17477 1073 ft 99 kts 64°
2026-04-22 09:40 52.08533 5.18517 1213 ft 102 kts 67°
2026-04-22 09:40 52.08844 5.19507 1185 ft 94 kts 68°
2026-04-22 09:41 52.09094 5.20490 1156 ft 90 kts 74°
2026-04-22 09:41 52.09196 5.21381 1125 ft 89 kts 88°